Latest Weather Observations for Ernabella/Pukatja

IDS60801

Issued at 12:32 pm CDT Tuesday 23 December 2014 (issued every 30 minutes, with the page automatically refreshed every 10 minutes)

About weather observations | Map of weather stations | Latest weather observations for SA | Other Formats
Station Details ID: 016097 Name: PUKATJA Lat: -26.26 Lon: 132.18 Height: 703.2 m
Data from the previous 72 hours. | See also: Recent months at Ernabella/Pukatja
Date/Time
CDT
Temp
°C
App
Temp
°C
Dew
Point
Rel
Hum
%
Delta-T
°C
Wind Press
QNH
hPa
Press
MSL
hPa
Rain
since 9 am
mm
Dir
 
Spd
km/h
Gust
km/h
Spd
kts
Gust
kts
23/12:30pm 25.9 23.4 13.4 46 7.6 S 19 30 10 16 1017.4 - 0.0
23/12:00pm 24.4 21.6 12.7 48 6.9 S 19 28 10 15 1017.3 1012.6 0.0
23/11:30am 24.8 22.3 13.4 49 6.9 SSW 19 32 10 17 1017.4 - 0.0
23/11:00am 23.6 21.0 13.2 52 6.2 S 19 26 10 14 1017.3 - 0.0
23/10:30am 22.2 19.2 12.7 55 5.6 SSE 20 26 11 14 1017.4 - 0.0
23/10:00am 22.0 19.5 13.4 58 5.1 S 19 24 10 13 1017.1 - 0.0
23/09:30am 20.8 18.0 13.3 62 4.4 SSW 20 26 11 14 1017.2 - 0.0
23/09:00am 21.1 18.7 13.8 63 4.4 S 19 28 10 15 1016.8 1012.1 0.0
23/08:30am 20.2 17.5 13.4 65 4.0 SSE 20 28 11 15 1017.0 - 0.0
23/08:00am 19.3 16.1 13.0 67 3.7 SSE 22 28 12 15 1016.6 - 0.0
23/07:30am 18.9 16.0 12.9 68 3.5 S 20 28 11 15 1016.3 - 0.0
23/07:00am 18.7 15.1 12.9 69 3.4 SSE 24 35 13 19 1015.7 - 0.0
23/06:30am 19.0 16.1 13.0 68 3.5 SSE 20 30 11 16 1015.2 - 0.0
23/06:00am 19.4 16.6 13.3 68 3.6 SSE 20 28 11 15 1014.7 1010.0 0.0
23/05:30am 19.5 15.6 13.2 67 3.7 SSE 26 33 14 18 1014.3 - 0.0
23/05:00am 19.9 17.2 13.6 67 3.7 S 20 28 11 15 1014.3 - 0.0
23/04:30am 20.4 16.6 13.6 65 4.0 SSE 26 33 14 18 1013.6 - 0.0
23/04:00am 21.1 17.9 14.3 65 4.1 S 24 32 13 17 1013.7 - 0.0
23/03:30am 21.8 19.7 14.7 64 4.3 SSE 19 30 10 16 1013.5 - 0.0
23/03:00am 22.6 20.3 14.7 61 4.8 S 20 28 11 15 1013.4 1008.7 0.0
23/02:30am 23.3 20.5 14.3 57 5.5 S 22 32 12 17 1013.4 - 0.0
23/02:00am 23.6 20.0 14.3 56 5.7 S 26 33 14 18 1013.7 - 0.0
23/01:30am 24.0 21.0 14.7 56 5.7 S 24 33 13 18 1014.1 - 0.0
23/01:00am 24.6 21.7 15.2 55 5.8 S 24 32 13 17 1014.1 - 0.0
23/12:30am 25.7 23.3 15.4 53 6.4 S 22 32 12 17 1014.3 - 0.0
23/12:00am 25.5 25.4 16.9 59 5.5 SE 13 17 7 9 1014.2 1009.4 0.0
 
Date/Time
CDT
Temp
°C
App
Temp
°C
Dew
Point
Rel
Hum
%
Delta-T
°C
Wind Press
QNH
hPa
Press
MSL
hPa
Rain
since 9 am
mm
Dir
 
Spd
km/h
Gust
km/h
Spd
kts
Gust
kts
22/11:30pm 24.2 26.0 18.8 72 3.5 NNW 7 13 4 7 1014.3 - 0.0
22/11:00pm 24.5 25.6 18.9 71 3.7 W 11 19 6 10 1014.1 - 0.0
22/10:30pm 27.0 26.3 16.3 52 6.8 SSW 15 24 8 13 1013.5 - 0.0
22/10:00pm 27.1 25.6 16.4 52 6.8 S 19 24 10 13 1013.2 - 0.0
22/09:30pm 27.5 24.8 16.5 51 7.0 S 26 35 14 19 1012.7 - 0.0
22/09:00pm 28.1 25.1 16.7 50 7.3 S 28 37 15 20 1012.3 1007.6 0.0
22/08:30pm 29.0 27.0 15.5 44 8.5 S 20 30 11 16 1011.7 - 0.0
22/08:00pm 29.6 25.9 15.0 41 9.2 SSW 28 35 15 19 1011.1 - 0.0
22/07:30pm 30.5 27.6 15.0 39 9.8 S 24 35 13 19 1010.5 - 0.0
22/07:00pm 30.7 26.9 14.8 38 10.0 SSW 28 39 15 21 1010.0 - 0.0
22/06:30pm 31.7 28.3 14.8 36 10.7 SW 26 32 14 17 1009.8 - 0.0
22/06:00pm 31.2 28.2 14.8 37 10.3 SSW 24 41 13 22 1009.8 1005.0 0.0
22/05:30pm 31.9 28.0 14.5 34 10.9 SW 28 39 15 21 1009.7 - 0.0
22/05:00pm 32.3 28.4 14.4 33 11.3 S 28 41 15 22 1009.9 - 0.0
22/04:30pm 32.8 29.3 14.4 33 11.6 SW 26 43 14 23 1010.2 - 0.0
22/04:00pm 32.4 28.4 14.1 33 11.5 SW 28 37 15 20 1010.2 - 0.0
22/03:30pm 32.5 28.5 14.1 32 11.5 SW 28 39 15 21 1010.5 - 0.0
22/03:00pm 32.8 29.3 14.4 33 11.6 SW 26 33 14 18 1010.6 1005.8 0.0
22/02:30pm 33.5 30.6 14.0 30 12.2 WSW 22 35 12 19 1010.9 - 0.0
22/02:00pm 33.6 31.5 13.6 29 12.5 SSW 17 22 9 12 1011.1 - 0.0
22/01:30pm 33.3 30.8 13.4 30 12.4 SSW 19 30 10 16 1011.5 - 0.0
22/01:00pm 33.4 29.8 12.9 28 12.7 SW 24 33 13 18 1011.8 - 0.0
22/12:30pm 32.4 30.5 13.1 31 11.9 W 15 24 8 13 1011.9 - 0.0
22/12:00pm 31.8 29.0 13.1 32 11.5 WSW 20 26 11 14 1011.8 1007.0 0.0
22/11:30am 32.3 31.6 15.3 35 10.8 WSW 13 30 7 16 1011.9 - 0.0
22/11:00am 30.0 30.7 16.1 43 8.9 SSW 7 13 4 7 1011.9 - 0.0
22/10:30am 28.4 29.2 16.3 47 7.7 WNW 7 13 4 7 1011.8 - 0.0
22/10:00am 27.5 28.8 17.1 53 6.7 WSW 6 11 3 6 1011.5 - 0.0
22/09:30am 25.4 27.0 16.8 59 5.5 N 4 7 2 4 1011.7 - 0.0
22/09:00am 24.5 26.1 17.0 63 4.8 WSW 4 7 2 4 1011.5 1006.7 0.0
22/08:30am 22.5 22.7 16.8 70 3.6 W 11 17 6 9 1011.2 - 0.0
22/08:00am 21.2 22.3 16.6 75 2.9 SW 6 7 3 4 1011.2 - 0.0
22/07:30am 20.1 21.0 16.5 80 2.2 W 7 9 4 5 1011.5 - 0.0
22/07:00am 20.0 20.6 16.8 82 2.0 W 9 15 5 8 1012.1 - 0.0
22/06:30am 20.5 20.6 16.5 78 2.5 SW 11 17 6 9 1012.1 - 0.0
22/06:00am 20.3 20.9 16.7 80 2.2 SW 9 15 5 8 1012.1 1007.4 0.0
22/05:30am 20.0 16.5 16.6 81 2.1 SW 30 41 16 22 1012.6 - 0.0
22/05:00am 20.8 17.2 17.2 80 2.3 SW 32 43 17 23 1012.6 - 0.0
22/04:30am 21.2 20.1 17.8 81 2.2 SW 20 32 11 17 1012.3 - 0.0
22/04:00am 21.4 21.7 18.8 85 1.7 WSW 15 26 8 14 1012.5 - 0.0
22/03:30am 22.0 18.2 18.2 79 2.4 SW 35 46 19 25 1012.1 - 0.0
22/03:13am 22.4 17.4 18.0 76 2.8 SW 41 59 22 32 1012.1 - 0.0
22/03:00am 22.8 17.8 17.9 74 3.1 SW 41 54 22 29 1011.9 1007.1 0.0
22/02:39am 23.5 16.3 17.7 70 3.7 SW 52 72 28 39 1011.5 - 0.0
22/02:30am 24.5 17.4 17.0 63 4.8 SW 50 65 27 35 1011.4 - 0.0
22/02:24am 28.1 24.3 15.7 46 7.8 WSW 30 56 16 30 1011.5 - 0.0
22/02:00am 28.5 29.5 14.3 41 8.8 NW 2 7 1 4 1010.5 - 0.0
22/01:30am 28.6 27.9 14.4 41 8.8 NNW 11 20 6 11 1010.4 - 0.0
22/01:00am 27.4 28.5 15.7 48 7.4 SW 4 7 2 4 1010.6 - 0.0
22/12:30am 26.5 29.0 17.3 57 5.9 CALM 0 0 0 0 1010.6 - 0.0
22/12:00am 26.7 27.5 17.2 56 6.1 SE 9 11 5 6 1010.9 1006.1 0.0
 
Date/Time
CDT
Temp
°C
App
Temp
°C
Dew
Point
Rel
Hum
%
Delta-T
°C
Wind Press
QNH
hPa
Press
MSL
hPa
Rain
since 9 am
mm
Dir
 
Spd
km/h
Gust
km/h
Spd
kts
Gust
kts
21/11:30pm 26.5 27.6 17.0 56 6.1 ENE 7 15 4 8 1010.6 - 0.0
21/11:00pm 26.2 25.6 17.6 59 5.6 ENE 17 22 9 12 1010.2 - 0.0
21/10:30pm 26.2 26.2 17.3 58 5.7 ENE 13 20 7 11 1010.4 - 0.0
21/10:00pm 26.7 27.7 17.7 57 5.8 NNE 9 9 5 5 1010.2 - 0.0
21/09:30pm 26.7 28.1 17.7 57 5.8 N 7 11 4 6 1010.0 - 0.0
21/09:00pm 28.1 29.0 16.7 50 7.3 NW 7 13 4 7 1009.9 1005.1 0.0
21/08:30pm 27.6 27.5 16.9 52 6.9 SSE 13 15 7 8 1009.7 - 0.0
21/08:00pm 28.2 27.2 16.5 49 7.5 SE 17 30 9 16 1009.8 - 0.0
21/07:30pm 29.5 27.1 13.7 38 9.7 WNW 19 30 10 16 1009.8 - 0.0
21/07:00pm 30.8 28.3 12.2 32 11.3 NNW 17 24 9 13 1009.6 - 0.0
21/06:30pm 30.2 26.8 14.7 39 9.7 NNW 26 41 14 22 1009.8 - 0.0
21/06:00pm 30.6 27.7 13.0 34 10.8 NW 20 37 11 20 1009.7 1004.9 0.0
21/05:36pm 31.5 27.7 14.6 36 10.6 WNW 28 52 15 28 1009.5 - 0.0
21/05:30pm 34.1 30.9 11.9 26 13.5 WNW 20 33 11 18 1009.1 - 0.0
21/05:00pm 35.6 32.4 11.9 24 14.5 NNW 20 32 11 17 1009.2 - 0.0
21/04:30pm 35.8 31.3 11.4 23 14.9 WNW 26 35 14 19 1009.6 - 0.0
21/04:00pm 34.8 31.4 11.2 24 14.3 WNW 20 35 11 19 1010.1 - 0.0
21/03:30pm 34.8 31.0 11.2 24 14.3 NW 22 37 12 20 1010.4 - 0.0
21/03:00pm 35.0 30.9 11.4 24 14.4 NNW 24 32 13 17 1010.5 1005.7 0.0
21/02:30pm 34.3 30.6 11.4 25 13.9 N 22 33 12 18 1011.0 - 0.0
21/02:00pm 33.5 30.1 11.4 26 13.3 NNW 20 30 11 16 1011.5 - 0.0
21/01:30pm 33.7 30.6 11.5 26 13.4 NW 19 28 10 15 1012.2 - 0.0
21/01:00pm 32.3 28.9 10.4 26 13.0 N 19 24 10 13 1012.7 - 0.0
21/12:30pm 31.6 29.1 9.8 26 12.8 N 13 22 7 12 1013.0 - 0.0
21/12:00pm 30.6 29.1 10.5 29 11.8 N 9 13 5 7 1013.4 1008.7 0.0
21/11:30am 32.0 29.1 9.5 25 13.1 NNW 15 22 8 12 1014.0 - 0.0
21/11:00am 29.7 27.9 9.3 28 11.7 NNW 9 13 5 7 1014.3 - 0.0
21/10:30am 29.0 28.1 10.6 32 10.8 NW 6 9 3 5 1014.4 - 0.0
21/10:00am 27.9 27.2 11.5 36 9.7 W 6 9 3 5 1014.3 - 0.0
21/09:30am 27.2 26.4 13.9 44 8.1 W 11 13 6 7 1014.3 - 0.0
21/09:00am 25.8 24.8 14.6 50 6.9 W 13 19 7 10 1014.1 1009.3 0.0
21/08:30am 25.7 25.3 14.2 49 7.0 SW 9 13 5 7 1013.6 - 0.0
21/08:00am 25.5 25.2 14.3 50 6.9 ESE 9 11 5 6 1013.1 - 0.0
21/07:30am 25.1 24.6 14.8 52 6.3 SW 11 13 6 7 1013.1 - 0.0
21/07:00am 24.1 24.0 15.9 60 5.1 E 11 13 6 7 1012.0 - 0.0
21/06:30am 24.2 24.1 15.9 59 5.2 E 11 11 6 6 1011.9 - 0.0
21/06:00am 24.0 24.7 17.0 65 4.5 ENE 9 11 5 6 1011.6 1006.8 0.0
21/05:30am 23.5 26.4 18.2 72 3.4 CALM 0 0 0 0 1011.7 - 0.0
21/05:00am 24.0 26.7 17.7 68 4.0 CALM 0 0 0 0 1011.7 - 0.0
21/04:30am 23.6 26.1 17.3 67 4.0 CALM 0 0 0 0 1011.6 - 0.0
21/04:00am 24.3 26.7 17.1 64 4.6 CALM 0 0 0 0 1011.7 - 0.0
21/03:30am 24.5 25.4 16.7 61 4.9 ENE 7 9 4 5 1011.5 - 0.0
21/03:00am 24.9 27.0 16.3 59 5.4 CALM 0 0 0 0 1011.7 1006.9 0.0
21/02:30am 24.9 26.9 16.1 58 5.5 CALM 0 0 0 0 1011.9 - 0.0
21/02:00am 25.0 25.7 15.6 56 5.9 N 6 7 3 4 1012.1 - 0.0
21/01:30am 25.0 25.6 15.3 55 6.0 SSW 6 7 3 4 1012.6 - 0.0
21/01:00am 25.1 23.9 15.1 53 6.2 WSW 15 17 8 9 1013.1 - 0.0
21/12:30am 24.9 24.2 15.5 56 5.9 WSW 13 17 7 9 1013.7 - 0.0
21/12:00am 24.7 24.6 15.9 58 5.5 W 11 15 6 8 1014.0 1009.2 0.0
 
Date/Time
CDT
Temp
°C
App
Temp
°C
Dew
Point
Rel
Hum
%
Delta-T
°C
Wind Press
QNH
hPa
Press
MSL
hPa
Rain
since 9 am
mm
Dir
 
Spd
km/h
Gust
km/h
Spd
kts
Gust
kts
20/11:30pm 25.0 24.4 15.6 56 5.9 W 13 20 7 11 1014.2 - 0.0
20/11:00pm 24.8 24.0 16.0 58 5.5 WSW 15 19 8 10 1014.2 - 0.0
20/10:30pm 25.0 22.7 15.6 56 5.9 WSW 22 30 12 16 1014.0 - 0.0
20/10:00pm 25.0 21.3 15.9 57 5.7 WSW 30 37 16 20 1014.0 - 0.0
20/09:30pm 24.6 21.6 16.8 62 4.9 WSW 28 41 15 22 1014.3 - 0.0
20/09:22pm 24.7 22.2 17.2 63 4.8 WSW 26 41 14 22 1014.1 - 0.0
20/09:00pm 24.9 18.9 16.9 61 5.1 SW 44 59 24 32 1013.3 1008.6 0.0
20/08:30pm 25.4 19.2 16.3 57 5.7 SW 44 59 24 32 1013.3 - 0.0
20/08:00pm 27.0 20.6 16.0 51 7.0 SW 44 61 24 33 1012.8 - 0.0
20/07:48pm 28.2 21.7 15.1 44 8.2 SW 43 63 23 34 1012.7 - 0.0
20/07:30pm 30.5 24.3 11.5 31 11.4 SSW 35 46 19 25 1012.0 - 0.0
20/07:08pm 32.6 26.5 10.6 26 13.1 SW 33 44 18 24 1011.5 - 0.0
20/07:00pm 34.2 31.9 7.3 19 15.3 W 9 17 5 9 1011.2 - 0.0
20/06:30pm 34.7 31.9 6.9 18 15.8 NNW 11 15 6 8 1010.9 - 0.0
20/06:00pm 35.0 31.7 6.3 17 16.2 NW 13 22 7 12 1010.9 1006.1 0.0
20/05:30pm 35.6 32.8 6.8 17 16.4 NW 11 17 6 9 1011.1 - 0.0
20/05:00pm 35.4 31.8 6.6 17 16.3 NNW 15 24 8 13 1011.4 - 0.0
20/04:30pm 35.9 33.5 7.0 17 16.5 NNW 9 15 5 8 1011.6 - 0.0
20/04:00pm 35.6 32.2 7.6 18 16.1 N 15 22 8 12 1012.1 - 0.0
20/03:30pm 36.4 32.9 7.4 17 16.7 WNW 15 28 8 15 1012.7 - 0.0
20/03:00pm 35.5 32.1 7.5 18 16.1 NW 15 24 8 13 1013.2 1008.4 0.0
20/02:30pm 34.6 30.2 7.6 19 15.5 NNW 20 30 11 16 1013.7 - 0.0
20/02:00pm 34.4 32.5 7.5 19 15.4 ENE 7 30 4 16 1014.3 - 0.0
20/01:30pm 33.3 28.5 7.3 20 14.7 N 22 35 12 19 1014.9 - 0.0
20/01:00pm 33.3 29.1 7.3 20 14.7 N 19 32 10 17 1015.6 - 0.0

Other Formats:

Comma delimited format used in spreadsheet applications
http://www.bom.gov.au/fwo/IDS60801/IDS60801.94474.axf

JavaScript Object Notation format (JSON) in row-major order
http://www.bom.gov.au/fwo/IDS60801/IDS60801.94474.json